Time;durP1;ratioP1;P1;durP2;ratioP2;P2;SDS_P1;SDS_P2;PMS_P1;PMS_P2;Temp;Humidity;BMP_temperature;BMP_pressure;BME280_temperature;BME280_humidity;BME280_pressure;Samples;Min_cycle;Max_cycle;Signal;HPM_P1;HPM_P2
2020/12/05 00:01:04;;;;;;;26.75;12.40;;;;;;;-0.68;59.18;101743.81;5031319;28;20029;-58
2020/12/05 00:03:30;;;;;;;24.85;11.95;;;;;;;-0.78;58.74;101717.53;5028657;28;20087;-61
2020/12/05 00:05:55;;;;;;;27.10;11.65;;;;;;;-0.65;59.37;101743.81;5027909;28;20073;-60
2020/12/05 00:08:21;;;;;;;30.55;12.25;;;;;;;-0.55;59.16;101748.13;5028588;28;20090;-59
2020/12/05 00:10:46;;;;;;;24.00;12.57;;;;;;;-0.68;59.26;101730.66;5028617;28;20129;-60
2020/12/05 00:13:13;;;;;;;27.13;12.65;;;;;;;-1.17;59.11;101658.91;5028955;28;20061;-61
2020/12/05 00:15:39;;;;;;;30.35;14.00;;;;;;;-0.73;59.44;101742.03;5028538;28;20132;-55
2020/12/05 00:18:04;;;;;;;30.38;13.50;;;;;;;-0.67;59.26;101748.19;5028250;28;20396;-59
2020/12/05 00:20:30;;;;;;;30.02;13.07;;;;;;;-0.69;59.30;101735.03;5028789;28;20176;-62
2020/12/05 00:22:55;;;;;;;35.22;14.23;;;;;;;-0.52;58.99;101745.50;5029726;28;20049;-62
2020/12/05 00:25:21;;;;;;;28.85;13.45;;;;;;;-0.55;58.83;101731.50;5029484;28;20521;-60
2020/12/05 00:27:46;;;;;;;30.70;14.23;;;;;;;-0.48;58.87;101742.00;5029819;28;20047;-61
2020/12/05 00:30:12;;;;;;;28.90;14.18;;;;;;;-0.50;59.28;101742.88;5030667;28;20025;-60
2020/12/05 00:32:37;;;;;;;32.22;13.95;;;;;;;-0.46;58.93;101748.13;5031090;28;20044;-60
2020/12/05 00:35:03;;;;;;;29.80;13.43;;;;;;;-0.39;58.61;101756.00;5030576;28;20075;-61
2020/12/05 00:37:30;;;;;;;30.50;13.57;;;;;;;-0.51;58.66;101747.25;5029461;28;20037;-60
2020/12/05 00:39:56;;;;;;;28.38;13.63;;;;;;;-0.49;58.72;101758.63;5030117;28;20029;-59
2020/12/05 00:42:21;;;;;;;32.17;13.18;;;;;;;-0.53;58.98;101756.91;5045621;28;20036;-60
2020/12/05 00:44:47;;;;;;;29.10;13.05;;;;;;;-0.53;58.79;101742.88;5049897;28;20040;-56
2020/12/05 00:47:12;;;;;;;29.65;13.57;;;;;;;-0.54;58.98;101741.13;5039034;28;20038;-61
2020/12/05 00:49:39;;;;;;;31.42;13.30;;;;;;;-0.71;58.96;101726.28;5029850;28;20057;-58
2020/12/05 00:52:04;;;;;;;26.95;12.60;;;;;;;-0.73;58.88;101738.56;5030703;28;20040;-61
2020/12/05 00:54:29;;;;;;;28.92;13.00;;;;;;;-0.68;59.01;101746.44;5030455;28;20049;-60
2020/12/05 00:56:55;;;;;;;27.13;13.75;;;;;;;-0.68;58.75;101775.38;5029719;28;20080;-61
2020/12/05 00:59:20;;;;;;;31.35;12.38;;;;;;;-0.74;58.89;101753.44;5029580;28;20120;-58
2020/12/05 01:01:52;;;;;;;30.90;13.13;;;;;;;-0.79;59.50;101762.25;5030203;28;20547;-59
2020/12/05 01:04:18;;;;;;;30.13;12.88;;;;;;;-0.74;59.17;101757.84;5030235;28;20101;-59
2020/12/05 01:06:44;;;;;;;25.23;11.30;;;;;;;-0.79;58.61;101734.19;5030342;28;20465;-60
2020/12/05 01:09:09;;;;;;;31.60;13.23;;;;;;;-0.73;59.05;101734.16;5029392;28;20032;-59
2020/12/05 01:11:35;;;;;;;25.27;12.77;;;;;;;-0.74;58.85;101766.59;5030176;28;20610;-60
2020/12/05 01:14:00;;;;;;;30.33;12.43;;;;;;;-1.64;58.91;101609.06;5030062;28;20037;-59
2020/12/05 01:16:27;;;;;;;35.92;13.77;;;;;;;-0.76;58.49;101747.31;5012186;28;20044;-59
2020/12/05 01:18:53;;;;;;;29.40;13.40;;;;;;;-0.93;58.58;101717.56;5029663;28;20079;-56
2020/12/05 01:21:19;;;;;;;32.83;12.93;;;;;;;-0.79;58.53;101739.44;5029653;28;20041;-59
2020/12/05 01:23:45;;;;;;;28.42;13.20;;;;;;;-0.76;58.47;101755.22;5029939;28;20037;-59
2020/12/05 01:26:11;;;;;;;31.13;13.68;;;;;;;-1.00;59.32;101729.84;5030136;28;20052;-58
2020/12/05 01:28:37;;;;;;;30.90;13.38;;;;;;;-0.88;58.80;101757.88;5029529;28;20033;-59
2020/12/05 01:31:04;;;;;;;28.33;12.88;;;;;;;-0.89;59.19;101758.75;5029527;28;20477;-60
2020/12/05 01:33:31;;;;;;;32.30;14.65;;;;;;;-0.89;58.86;101745.63;5029817;28;20042;-60
2020/12/05 01:36:00;;;;;;;28.58;12.30;;;;;;;-0.88;59.13;101764.00;5029908;28;20413;-59
2020/12/05 01:38:27;;;;;;;31.85;12.05;;;;;;;-0.87;58.90;101751.75;5029893;28;20161;-61
2020/12/05 01:40:57;;;;;;;34.08;14.32;;;;;;;-0.90;59.06;101754.38;5026810;28;20371;-58
2020/12/05 01:43:24;;;;;;;30.42;13.70;;;;;;;-0.86;58.76;101745.59;5027661;28;20032;-59
2020/12/05 01:45:50;;;;;;;30.52;14.00;;;;;;;-0.95;59.51;101770.16;5027805;28;20046;-57
2020/12/05 01:48:20;;;;;;;32.72;13.07;;;;;;;-0.97;59.20;101765.75;5027876;28;20409;-59
2020/12/05 01:50:46;;;;;;;30.45;13.85;;;;;;;-0.98;58.77;101758.75;5026781;28;20038;-59
2020/12/05 01:53:16;;;;;;;34.28;14.70;;;;;;;-1.19;59.11;101750.91;5008588;28;20568;-58
2020/12/05 01:55:50;;;;;;;31.48;13.40;;;;;;;-1.44;59.21;101723.78;5009623;28;20496;-56
2020/12/05 01:58:16;;;;;;;34.22;14.02;;;;;;;-1.17;59.15;101759.66;5010292;28;20464;-60
2020/12/05 02:00:43;;;;;;;31.73;13.60;;;;;;;-1.18;59.51;101757.06;5018651;28;20034;-61
2020/12/05 02:03:09;;;;;;;34.03;14.10;;;;;;;-1.16;59.50;101761.41;5029301;28;20037;-61
2020/12/05 02:05:53;;;;;;;33.28;12.93;;;;;;;-1.06;59.41;101746.50;5029830;28;20064;-59
2020/12/05 02:08:37;;;;;;;31.02;13.20;;;;;;;-1.06;59.60;101750.91;5029874;28;20056;-59
2020/12/05 02:11:02;;;;;;;34.45;14.88;;;;;;;-1.13;59.27;101762.28;5028750;28;20219;-59
2020/12/05 02:13:35;;;;;;;37.83;16.55;;;;;;;-1.30;59.57;101729.88;5037685;28;20041;-59
2020/12/05 02:16:01;;;;;;;41.55;17.23;;;;;;;-1.17;59.15;101751.78;5049509;28;20037;-59
2020/12/05 02:18:29;;;;;;;40.33;18.20;;;;;;;-1.10;59.18;101754.38;5049610;28;20043;-58
2020/12/05 02:21:00;;;;;;;40.88;18.30;;;;;;;-1.15;59.01;101764.94;5045797;28;20033;-60
2020/12/05 02:23:27;;;;;;;37.75;17.48;;;;;;;-1.18;58.92;101765.78;5033066;28;20045;-59
2020/12/05 02:25:58;;;;;;;41.88;18.27;;;;;;;-1.19;58.93;101757.94;5033075;28;20037;-58
2020/12/05 02:28:24;;;;;;;41.40;17.38;;;;;;;-1.17;58.41;101764.91;5033127;28;20107;-60
2020/12/05 02:30:50;;;;;;;41.80;18.15;;;;;;;-1.16;58.90;101765.81;5031705;28;20497;-61
2020/12/05 02:33:16;;;;;;;41.25;17.95;;;;;;;-1.23;58.56;101775.44;5031873;28;20071;-59
2020/12/05 02:35:42;;;;;;;43.15;18.42;;;;;;;-1.34;58.69;101746.53;5033424;28;20033;-56
2020/12/05 02:38:29;;;;;;;41.38;17.65;;;;;;;-1.17;58.84;101774.56;5033399;28;20124;-59
2020/12/05 02:40:56;;;;;;;42.58;18.17;;;;;;;-1.30;58.14;101757.94;5015464;28;20396;-60
2020/12/05 02:43:22;;;;;;;42.40;16.98;;;;;;;-1.41;58.76;101760.56;5032010;28;20042;-60
2020/12/05 02:45:47;;;;;;;33.78;15.00;;;;;;;-1.28;57.83;101777.19;5033136;28;20099;-61
2020/12/05 02:48:13;;;;;;;37.83;17.27;;;;;;;-1.49;57.98;101767.53;5032685;28;20120;-60
2020/12/05 02:50:38;;;;;;;43.83;18.65;;;;;;;-1.48;58.73;101790.31;5035707;28;20025;-60
2020/12/05 02:53:04;;;;;;;46.35;19.17;;;;;;;-1.50;58.81;101779.81;5043871;28;20090;-58
2020/12/05 02:55:30;;;;;;;41.78;18.30;;;;;;;-1.48;58.55;101777.16;5031281;28;20096;-60
2020/12/05 02:57:55;;;;;;;44.50;17.20;;;;;;;-1.53;58.18;101786.81;5034334;28;20445;-59
2020/12/05 03:00:22;;;;;;;43.50;18.77;;;;;;;-1.48;57.97;101801.69;5052744;28;20029;-61
2020/12/05 03:02:48;;;;;;;36.47;15.13;;;;;;;-1.48;57.99;101795.56;5050664;28;20251;-61
2020/12/05 03:05:13;;;;;;;41.63;18.05;;;;;;;-1.70;58.44;101782.38;5031653;28;20175;-60
2020/12/05 03:07:39;;;;;;;41.33;18.17;;;;;;;-1.76;58.56;101782.38;5040563;28;20029;-62
2020/12/05 03:10:05;;;;;;;41.42;17.67;;;;;;;-1.86;58.04;101789.34;5032497;28;20556;-58
2020/12/05 03:12:30;;;;;;;36.95;16.25;;;;;;;-1.80;58.37;101788.50;5032556;28;20370;-60
2020/12/05 03:14:56;;;;;;;37.17;15.57;;;;;;;-1.76;58.10;101799.03;5031505;28;20037;-59
2020/12/05 03:17:21;;;;;;;41.80;17.38;;;;;;;-1.87;57.92;101774.47;5031838;28;20501;-60
2020/12/05 03:19:47;;;;;;;32.90;15.38;;;;;;;-1.83;57.96;101778.00;5031625;28;20169;-60
2020/12/05 03:22:12;;;;;;;39.35;15.55;;;;;;;-2.03;57.83;101756.09;5032127;28;20045;-61
2020/12/05 03:24:38;;;;;;;30.30;12.63;;;;;;;-1.83;57.50;101791.13;5031372;28;20079;-61
2020/12/05 03:27:03;;;;;;;36.38;15.80;;;;;;;-1.99;58.00;101777.94;5031814;28;20037;-62
2020/12/05 03:29:29;;;;;;;38.13;15.05;;;;;;;-2.25;57.14;101720.16;5031705;28;20603;-58
2020/12/05 03:31:59;;;;;;;35.53;15.55;;;;;;;-2.09;57.94;101778.81;5031986;28;20038;-62
2020/12/05 03:34:24;;;;;;;34.22;15.35;;;;;;;-2.11;57.96;101784.03;5030415;28;20041;-62
2020/12/05 03:36:50;;;;;;;32.10;15.02;;;;;;;-2.14;57.81;101796.28;5026692;28;20439;-60
2020/12/05 03:39:16;;;;;;;36.35;15.68;;;;;;;-2.25;57.67;101794.47;5012187;28;20038;-60
2020/12/05 03:41:42;;;;;;;35.95;14.30;;;;;;;-2.43;57.94;101778.66;5029644;28;20399;-60
2020/12/05 03:44:07;;;;;;;33.92;14.70;;;;;;;-2.33;57.69;101798.81;5031672;28;20124;-62
2020/12/05 03:46:33;;;;;;;31.63;13.32;;;;;;;-2.54;57.84;101775.97;5030706;28;20041;-61
2020/12/05 03:48:59;;;;;;;28.42;14.48;;;;;;;-2.51;58.30;101797.00;5031446;28;20036;-61
2020/12/05 03:51:25;;;;;;;28.10;12.20;;;;;;;-2.66;58.24;101805.63;5031815;28;20146;-61
2020/12/05 03:53:51;;;;;;;30.85;12.98;;;;;;;-2.85;58.20;101784.56;5031349;28;20060;-61
2020/12/05 03:56:16;;;;;;;27.80;11.00;;;;;;;-2.54;57.68;101800.47;5030858;28;20053;-59
2020/12/05 03:58:42;;;;;;;30.42;13.57;;;;;;;-2.75;57.67;101809.94;5031516;28;20080;-62
2020/12/05 04:01:07;;;;;;;32.63;13.85;;;;;;;-2.85;58.03;101802.91;5031559;28;20037;-59
2020/12/05 04:03:33;;;;;;;31.10;13.60;;;;;;;-2.93;57.93;101822.91;5031613;28;20044;-62
2020/12/05 04:05:58;;;;;;;29.88;12.75;;;;;;;-2.96;58.26;101809.78;5030945;28;20045;-62
2020/12/05 04:08:24;;;;;;;29.48;13.70;;;;;;;-2.94;57.76;101806.31;5030591;28;20128;-62
2020/12/05 04:10:49;;;;;;;29.10;13.38;;;;;;;-2.85;58.34;101805.53;5030921;28;20044;-61
2020/12/05 04:13:15;;;;;;;32.85;13.52;;;;;;;-2.84;58.05;101823.00;5031481;28;20604;-62
2020/12/05 04:15:40;;;;;;;31.48;13.55;;;;;;;-2.79;57.69;101818.66;5031363;28;20615;-62
2020/12/05 04:18:06;;;;;;;29.17;13.23;;;;;;;-2.75;58.20;101811.72;5030655;28;20511;-61
2020/12/05 04:20:31;;;;;;;32.10;13.02;;;;;;;-2.73;58.09;101815.22;5031087;28;20033;-61
2020/12/05 04:22:57;;;;;;;24.08;9.90;;;;;;;-2.60;57.69;101814.41;5031415;28;20033;-61
2020/12/05 04:25:23;;;;;;;30.63;14.00;;;;;;;-2.64;57.62;101819.66;5031204;28;20041;-60
2020/12/05 04:27:50;;;;;;;31.33;13.85;;;;;;;-2.68;57.63;101830.97;5030432;28;20044;-54
2020/12/05 04:30:16;;;;;;;31.13;13.50;;;;;;;-3.31;58.42;101722.19;5030791;28;20072;-60
2020/12/05 04:32:42;;;;;;;31.60;13.48;;;;;;;-3.34;58.42;101732.66;5030987;28;20041;-60
2020/12/05 04:35:07;;;;;;;33.33;12.60;;;;;;;-2.67;58.44;101830.09;5030327;28;20029;-60
2020/12/05 04:37:33;;;;;;;33.35;13.52;;;;;;;-3.13;58.01;101757.25;5030593;28;20045;-61
2020/12/05 04:39:58;;;;;;;30.65;13.13;;;;;;;-2.74;58.17;101842.31;5030730;28;20033;-61
2020/12/05 04:42:23;;;;;;;30.85;13.70;;;;;;;-2.75;58.94;101833.53;5029745;28;20041;-60
2020/12/05 04:44:49;;;;;;;31.17;12.85;;;;;;;-2.92;58.18;101796.72;5030684;28;20403;-60
2020/12/05 04:47:16;;;;;;;33.67;13.95;;;;;;;-2.67;58.73;101836.22;5031012;28;20445;-58
2020/12/05 04:49:43;;;;;;;27.85;12.68;;;;;;;-2.65;58.80;101838.88;5030717;28;20477;-63
2020/12/05 04:52:21;;;;;;;35.60;12.52;;;;;;;-2.68;58.81;101839.72;5029725;28;20099;-63
2020/12/05 04:54:55;;;;;;;30.05;13.40;;;;;;;-2.63;58.52;101839.75;5031188;28;20040;-62
2020/12/05 04:57:26;;;;;;;31.23;13.93;;;;;;;-2.66;58.65;101839.72;5030633;28;20049;-60
2020/12/05 04:59:53;;;;;;;30.50;13.38;;;;;;;-2.59;58.44;101849.41;5030779;28;20041;-59
2020/12/05 05:02:23;;;;;;;32.70;14.30;;;;;;;-2.55;58.91;101845.03;5031038;28;20047;-61
2020/12/05 05:04:49;;;;;;;34.35;14.93;;;;;;;-2.52;58.20;101848.56;5030125;28;20049;-60
2020/12/05 05:07:15;;;;;;;32.55;13.32;;;;;;;-2.63;58.44;101834.50;5029941;28;20485;-62
2020/12/05 05:09:45;;;;;;;31.98;13.02;;;;;;;-2.65;59.18;101857.22;5030406;28;20092;-59
2020/12/05 05:12:23;;;;;;;29.98;12.20;;;;;;;-2.68;59.10;101834.47;5030193;28;20037;-61
2020/12/05 05:14:49;;;;;;;31.33;12.45;;;;;;;-2.68;58.56;101844.06;5029609;28;20119;-61
2020/12/05 05:17:14;;;;;;;37.08;14.13;;;;;;;-2.76;59.28;101842.28;5030372;28;20458;-63
2020/12/05 05:19:40;;;;;;;31.42;14.20;;;;;;;-2.82;59.11;101841.34;5030331;28;20040;-61
2020/12/05 05:22:05;;;;;;;34.05;14.00;;;;;;;-2.79;58.51;101850.13;5029015;28;20528;-62
2020/12/05 05:24:31;;;;;;;30.55;12.27;;;;;;;-2.73;58.50;101851.94;5029709;28;20065;-61
2020/12/05 05:27:05;;;;;;;30.33;13.20;;;;;;;-2.79;58.70;101863.22;5030297;28;20041;-60
2020/12/05 05:29:37;;;;;;;33.05;13.70;;;;;;;-2.86;59.60;101856.19;5030159;28;20072;-63
2020/12/05 05:32:09;;;;;;;35.17;13.57;;;;;;;-3.00;59.60;101844.72;5030104;28;20064;-60
2020/12/05 05:34:35;;;;;;;32.28;13.85;;;;;;;-2.87;59.66;101864.94;5029329;28;20042;-62
2020/12/05 05:37:00;;;;;;;33.58;14.05;;;;;;;-2.92;59.18;101856.13;5030170;28;20128;-61
2020/12/05 05:39:26;;;;;;;31.40;12.65;;;;;;;-2.76;58.90;101875.50;5030186;28;20455;-61
2020/12/05 05:41:54;;;;;;;33.55;14.02;;;;;;;-2.80;59.27;101866.72;5030088;28;20029;-57
2020/12/05 05:44:25;;;;;;;31.17;12.73;;;;;;;-2.80;59.52;101877.22;5043110;28;20502;-60
2020/12/05 05:46:51;;;;;;;35.63;13.40;;;;;;;-2.82;59.27;101878.06;5029861;28;20073;-62
2020/12/05 05:49:25;;;;;;;29.20;13.35;;;;;;;-2.87;59.48;101885.91;5029721;28;20041;-62
2020/12/05 05:51:51;;;;;;;32.83;13.85;;;;;;;-2.84;59.15;101896.41;5029592;28;20124;-59
2020/12/05 05:54:27;;;;;;;31.73;14.48;;;;;;;-3.03;58.59;101870.03;5029513;28;20057;-61
2020/12/05 05:56:52;;;;;;;36.65;14.20;;;;;;;-2.88;58.35;101892.00;5030643;28;20053;-60
2020/12/05 05:59:20;;;;;;;31.50;13.48;;;;;;;-2.87;58.50;101891.13;5034429;28;20145;-59
2020/12/05 06:01:51;;;;;;;36.17;14.30;;;;;;;-2.90;57.94;101884.13;5033862;28;20037;-61
2020/12/05 06:04:33;;;;;;;32.03;14.73;;;;;;;-3.43;58.65;101817.25;5033211;28;20132;-61
2020/12/05 06:07:01;;;;;;;44.60;15.48;;;;;;;-3.14;58.16;101882.13;5033776;28;20033;-61
2020/12/05 06:09:39;;;;;;;37.20;14.73;;;;;;;-3.04;58.61;101902.34;5033649;28;20044;-62
2020/12/05 06:12:06;;;;;;;31.77;14.65;;;;;;;-2.95;58.45;101906.78;5033661;28;20044;-60
2020/12/05 06:14:32;;;;;;;36.30;14.63;;;;;;;-3.02;58.30;101902.34;5033486;28;20044;-59
2020/12/05 06:16:58;;;;;;;31.52;13.80;;;;;;;-3.03;57.67;101906.72;5032540;28;20033;-60
2020/12/05 06:19:25;;;;;;;35.25;14.27;;;;;;;-3.04;57.84;101897.09;5015632;28;20041;-57
2020/12/05 06:21:56;;;;;;;33.53;14.68;;;;;;;-3.01;57.34;101917.22;5033512;28;20516;-61
2020/12/05 06:24:56;;;;;;;35.40;13.63;;;;;;;-3.10;58.09;101877.81;5033216;28;20069;-60
2020/12/05 06:27:25;;;;;;;29.80;13.73;;;;;;;-3.01;57.67;101903.22;5027765;28;20044;-60
2020/12/05 06:29:51;;;;;;;32.90;13.85;;;;;;;-2.84;57.02;101906.00;5033453;28;20045;-58
2020/12/05 06:32:36;;;;;;;34.65;13.70;;;;;;;-2.65;56.88;101913.16;5032820;28;20049;-59
2020/12/05 06:35:02;;;;;;;31.40;12.60;;;;;;;-2.51;56.44;101908.00;5033091;28;20412;-60
2020/12/05 06:37:34;;;;;;;37.08;16.02;;;;;;;-2.34;55.97;101920.38;5046176;28;20776;-60
2020/12/05 06:40:01;;;;;;;28.80;12.93;;;;;;;-1.88;54.43;101923.28;5032725;28;20029;-61
2020/12/05 06:42:28;;;;;;;27.58;13.02;;;;;;;-1.38;53.36;101912.97;5032801;28;20051;-62
2020/12/05 06:44:53;;;;;;;32.67;13.27;;;;;;;-0.74;52.61;101918.31;5033488;28;20034;-60
2020/12/05 06:47:24;;;;;;;32.97;14.10;;;;;;;-0.46;51.29;101920.94;5032700;28;20041;-60
2020/12/05 06:49:50;;;;;;;33.17;14.00;;;;;;;0.08;50.38;101923.47;5032500;28;20056;-62
2020/12/05 06:52:25;;;;;;;28.17;13.38;;;;;;;0.64;49.19;101917.94;5032736;28;20037;-59
2020/12/05 06:54:53;;;;;;;29.23;13.25;;;;;;;1.02;48.01;101918.59;5032493;28;20045;-63
2020/12/05 06:57:20;;;;;;;27.98;13.45;;;;;;;1.35;47.59;101908.69;5032123;28;20053;-61
2020/12/05 06:59:46;;;;;;;26.25;13.63;;;;;;;2.44;45.65;101915.44;5030139;28;20038;-52
2020/12/05 07:02:27;;;;;;;26.05;12.93;;;;;;;3.80;42.87;101909.78;5032601;28;20409;-50
2020/12/05 07:05:19;;;;;;;25.45;13.13;;;;;;;4.80;40.66;101905.97;5032055;28;20037;-55
2020/12/05 07:07:50;;;;;;;25.55;13.30;;;;;;;5.57;38.95;101903.22;5031897;28;20041;-50
2020/12/05 07:10:17;;;;;;;25.63;13.02;;;;;;;6.09;37.53;101825.59;5030216;28;20034;-53
2020/12/05 07:12:44;;;;;;;29.48;13.65;;;;;;;7.23;35.59;101909.94;5032797;28;20034;-54
2020/12/05 07:15:22;;;;;;;28.17;13.23;;;;;;;7.69;34.01;101902.16;5031902;28;20056;-53
2020/12/05 07:17:49;;;;;;;24.15;12.98;;;;;;;7.64;34.32;101902.31;5032061;28;20086;-55
2020/12/05 07:20:16;;;;;;;25.73;12.80;;;;;;;7.03;35.12;101887.47;5031803;28;20741;-49
2020/12/05 07:22:44;;;;;;;31.27;14.07;;;;;;;6.05;35.38;101913.47;5032227;28;20086;-54
2020/12/05 07:25:09;;;;;;;24.38;13.80;;;;;;;4.47;36.95;101838.59;5031349;28;20485;-52
2020/12/05 07:27:35;;;;;;;27.58;13.57;;;;;;;3.78;38.72;101926.63;5032011;28;20041;-50
2020/12/05 07:30:00;;;;;;;25.38;13.00;;;;;;;2.87;40.14;101924.53;5015207;28;20096;-51
2020/12/05 07:32:35;;;;;;;30.20;14.10;;;;;;;2.07;40.54;101929.09;5032509;28;20034;-54
2020/12/05 07:35:04;;;;;;;25.08;13.80;;;;;;;1.46;42.43;101936.72;5031461;28;20033;-48
2020/12/05 07:37:30;;;;;;;31.02;12.70;;;;;;;0.48;43.58;101864.44;5032098;28;20171;-51
2020/12/05 07:39:56;;;;;;;30.02;13.27;;;;;;;0.32;44.67;101945.34;5031968;28;20490;-53
2020/12/05 07:42:22;;;;;;;26.20;13.57;;;;;;;-0.15;45.88;101942.81;5031583;28;20080;-55
2020/12/05 07:44:48;;;;;;;27.75;13.95;;;;;;;-0.47;46.55;101953.38;5032173;28;20053;-51
2020/12/05 07:47:17;;;;;;;26.23;13.18;;;;;;;-0.65;46.36;101951.63;5026758;28;20042;-49
2020/12/05 07:49:53;;;;;;;26.35;12.70;;;;;;;-0.83;46.74;101950.75;5011759;28;20042;-56
2020/12/05 07:52:20;;;;;;;32.00;12.43;;;;;;;-1.41;47.18;101860.41;5026389;28;20041;-51
2020/12/05 07:55:01;;;;;;;26.08;12.75;;;;;;;-0.99;47.19;101936.69;5031250;28;20037;-53
2020/12/05 07:57:32;;;;;;;34.03;13.32;;;;;;;-0.96;47.35;101949.00;5031351;28;20046;-50
2020/12/05 08:00:10;;;;;;;28.23;13.23;;;;;;;-1.03;47.44;101961.25;5031841;28;20068;-54
2020/12/05 08:02:45;;;;;;;26.92;12.82;;;;;;;-1.06;47.88;101950.72;5031423;28;20040;-54
2020/12/05 08:05:18;;;;;;;;;;;;;;;-0.90;47.99;101951.63;5031572;28;20037;-52
2020/12/05 08:07:54;;;;;;;25.42;11.95;;;;;;;-1.02;47.18;101948.06;5030165;28;19921;-49
2020/12/05 08:10:23;;;;;;;32.30;13.50;;;;;;;-0.96;46.75;101941.97;5031107;28;20041;-55
2020/12/05 08:13:07;;;;;;;26.25;11.82;;;;;;;-0.81;46.91;101940.22;5030837;28;20033;-55
2020/12/05 08:15:34;;;;;;;28.13;12.40;;;;;;;-0.86;46.85;101916.56;5013538;28;20171;-54
2020/12/05 08:18:01;;;;;;;29.33;13.73;;;;;;;-0.54;46.50;101959.53;5010841;28;20079;-49
2020/12/05 08:20:28;;;;;;;28.02;12.55;;;;;;;-0.59;46.42;101956.88;5030851;28;20130;-51
2020/12/05 08:22:53;;;;;;;36.40;12.82;;;;;;;-0.63;46.15;101939.34;5013096;28;20041;-56
2020/12/05 08:25:19;;;;;;;24.38;12.35;;;;;;;-0.60;45.60;101932.34;5030013;28;20048;-49
2020/12/05 08:27:45;;;;;;;30.27;12.48;;;;;;;-0.61;45.70;101937.59;5029953;28;20040;-51
2020/12/05 08:30:11;;;;;;;27.23;12.98;;;;;;;-0.90;46.00;101910.41;5028689;28;20063;-55
2020/12/05 08:32:37;;;;;;;31.02;13.73;;;;;;;-0.67;45.73;101948.13;5029019;28;20047;-55
2020/12/05 08:35:07;;;;;;;28.13;12.15;;;;;;;-0.70;46.21;101942.88;5029931;28;20392;-60
2020/12/05 08:37:33;;;;;;;23.65;12.55;;;;;;;-0.66;45.76;101942.00;5027002;28;20076;-54
2020/12/05 08:39:59;;;;;;;25.80;12.52;;;;;;;-0.60;45.49;101941.97;5029158;28;20037;-54
2020/12/05 08:42:26;;;;;;;25.55;12.35;;;;;;;-0.50;45.24;101956.03;5028692;28;20124;-49
2020/12/05 08:44:51;;;;;;;26.48;12.48;;;;;;;-0.53;45.17;101934.97;5026815;28;20099;-50
2020/12/05 08:47:18;;;;;;;27.00;12.80;;;;;;;-0.61;45.49;101932.34;5025783;28;20051;-51
2020/12/05 08:49:48;;;;;;;24.15;12.27;;;;;;;-0.60;45.36;101944.63;5029658;28;20041;-51
2020/12/05 08:52:15;;;;;;;24.85;12.43;;;;;;;-0.67;45.56;101945.50;5030357;28;20052;-56
2020/12/05 08:54:53;;;;;;;24.73;12.80;;;;;;;-0.68;45.51;101941.13;5030006;28;20092;-56
2020/12/05 08:57:20;;;;;;;25.80;12.02;;;;;;;-0.68;45.76;101933.22;5030302;28;20045;-52
2020/12/05 08:59:47;;;;;;;24.38;12.50;;;;;;;-0.72;45.91;101942.84;5029722;28;20036;-54
2020/12/05 09:02:14;;;;;;;32.28;13.68;;;;;;;-0.67;45.69;101937.59;5030015;28;20037;-53
2020/12/05 09:04:40;;;;;;;26.58;12.23;;;;;;;-0.68;45.83;101931.44;5027852;28;20040;-51
2020/12/05 09:07:17;;;;;;;30.58;13.73;;;;;;;-0.65;45.34;101955.13;5029736;28;20072;-53
2020/12/05 09:09:47;;;;;;;27.80;13.43;;;;;;;-0.79;45.30;101941.09;5023433;28;20488;-54
2020/12/05 09:12:14;;;;;;;27.65;13.15;;;;;;;-0.87;45.98;101941.09;5027024;28;20038;-54
2020/12/05 09:14:41;;;;;;;27.30;12.73;;;;;;;-0.89;46.01;101935.81;5028902;28;20137;-59
2020/12/05 09:17:27;;;;;;;24.25;12.38;;;;;;;-0.94;45.87;101923.56;5028298;28;20452;-58
2020/12/05 09:20:08;;;;;;;28.05;12.85;;;;;;;-0.96;45.79;101927.94;5029247;28;20029;-52
2020/12/05 09:22:35;;;;;;;26.13;13.10;;;;;;;-0.99;46.23;101925.28;5027579;28;20033;-53
2020/12/05 09:25:01;;;;;;;29.90;13.13;;;;;;;-0.99;46.20;101920.03;5029175;28;20052;-55
2020/12/05 09:27:38;;;;;;;32.72;12.73;;;;;;;-0.98;46.24;101914.78;5028502;28;20037;-56
2020/12/05 09:30:06;;;;;;;30.77;14.40;;;;;;;-0.99;46.13;101922.66;5028901;28;20056;-53
2020/12/05 09:32:46;;;;;;;27.35;12.60;;;;;;;-1.04;45.65;101913.00;5029267;28;20049;-56
2020/12/05 09:35:14;;;;;;;24.35;11.90;;;;;;;-1.04;46.27;101914.78;5029704;28;20084;-51
2020/12/05 09:37:39;;;;;;;27.92;12.30;;;;;;;-1.08;46.00;101915.66;5028648;28;20117;-50
2020/12/05 09:40:06;;;;;;;29.40;11.82;;;;;;;-1.02;45.97;101915.66;5023968;28;20623;-58
2020/12/05 09:42:32;;;;;;;29.30;12.73;;;;;;;-1.08;45.73;101905.16;5009999;28;20032;-54
2020/12/05 09:44:58;;;;;;;27.08;12.65;;;;;;;-1.06;45.96;101908.66;5028337;28;20037;-54
2020/12/05 09:47:23;;;;;;;31.83;13.13;;;;;;;-1.06;45.35;101906.03;5027379;28;20032;-55
2020/12/05 09:49:49;;;;;;;26.55;13.20;;;;;;;-1.12;45.55;101920.03;5008673;28;20072;-54
2020/12/05 09:52:14;;;;;;;26.98;12.93;;;;;;;-1.14;45.67;101937.56;5017913;28;20122;-53
2020/12/05 09:54:39;;;;;;;24.90;11.68;;;;;;;-1.19;45.55;101913.88;5024865;28;20037;-49
2020/12/05 09:57:06;;;;;;;25.10;12.27;;;;;;;-1.14;45.45;101921.78;5026581;28;20049;-54
2020/12/05 09:59:31;;;;;;;26.50;12.57;;;;;;;-1.10;45.72;101928.78;5029018;28;20543;-53
2020/12/05 10:01:57;;;;;;;27.52;12.82;;;;;;;-1.09;45.16;101909.50;5029640;28;20082;-53
2020/12/05 10:04:23;;;;;;;26.88;11.68;;;;;;;-1.03;45.67;101913.91;5028683;28;20029;-55
2020/12/05 10:06:49;;;;;;;27.95;12.48;;;;;;;-0.99;45.56;101912.13;5031340;28;20038;-54
2020/12/05 10:09:15;;;;;;;24.30;11.63;;;;;;;-1.10;45.22;101897.25;5028898;28;20033;-52
2020/12/05 10:11:41;;;;;;;29.38;12.55;;;;;;;-0.95;45.14;101911.28;5028127;28;20523;-53
2020/12/05 10:14:06;;;;;;;24.95;12.20;;;;;;;-1.07;44.62;101891.97;5028294;28;20048;-54
2020/12/05 10:16:33;;;;;;;28.83;12.20;;;;;;;-0.88;44.89;101913.91;5028688;28;20029;-58
2020/12/05 10:18:59;;;;;;;28.90;12.57;;;;;;;-0.94;44.81;101899.91;5026717;28;20503;-53
2020/12/05 10:21:24;;;;;;;27.48;11.77;;;;;;;-1.13;44.71;101867.44;5038710;28;20139;-53
2020/12/05 10:23:50;;;;;;;25.42;12.43;;;;;;;-0.71;44.98;101914.81;5042110;28;20056;-55
2020/12/05 10:26:15;;;;;;;26.67;12.75;;;;;;;-0.62;44.42;101928.81;5028109;28;20042;-57
2020/12/05 10:28:40;;;;;;;26.70;11.27;;;;;;;-0.59;43.88;101923.56;5027346;28;20030;-57
2020/12/05 10:31:06;;;;;;;29.75;11.65;;;;;;;-0.61;44.27;101906.03;5028012;28;20034;-59
2020/12/05 10:33:31;;;;;;;27.27;10.95;;;;;;;-0.54;43.58;101915.66;5028627;28;20038;-54
2020/12/05 10:35:57;;;;;;;26.60;11.88;;;;;;;-0.56;43.97;101908.66;5028825;28;20078;-56
2020/12/05 10:38:22;;;;;;;22.73;11.77;;;;;;;-0.47;43.59;101930.59;5029366;28;20128;-57
2020/12/05 10:40:48;;;;;;;27.42;12.60;;;;;;;-0.53;43.84;101925.31;5028424;28;20401;-57
2020/12/05 10:43:13;;;;;;;26.05;11.15;;;;;;;-0.58;43.56;101924.44;5030637;28;20120;-56
2020/12/05 10:45:40;;;;;;;28.13;12.25;;;;;;;-0.47;43.58;101917.44;5032259;28;20162;-60
2020/12/05 10:48:05;;;;;;;27.40;11.65;;;;;;;-0.40;43.49;101925.31;5032932;28;20045;-53
2020/12/05 10:50:31;;;;;;;27.65;12.35;;;;;;;-0.34;43.70;101926.19;5032208;28;20041;-57
2020/12/05 10:52:56;;;;;;;26.48;11.65;;;;;;;-0.31;43.62;101920.03;5032903;28;20048;-57
2020/12/05 10:55:22;;;;;;;26.35;12.18;;;;;;;-0.26;43.57;101935.81;5031543;28;20479;-56
2020/12/05 10:57:47;;;;;;;25.27;11.52;;;;;;;-0.23;43.08;101918.28;5032340;28;20060;-61
2020/12/05 11:00:13;;;;;;;27.15;11.57;;;;;;;-0.16;42.68;101921.75;5031872;28;20041;-57
2020/12/05 11:02:38;;;;;;;24.35;11.35;;;;;;;-0.15;42.62;101927.03;5032770;28;20064;-60
2020/12/05 11:05:05;;;;;;;23.42;11.25;;;;;;;-0.11;42.19;101922.63;5030673;28;20030;-60
2020/12/05 11:07:31;;;;;;;24.33;11.98;;;;;;;-0.26;42.10;101907.72;5031783;28;20536;-61
2020/12/05 11:09:56;;;;;;;21.52;11.15;;;;;;;-0.30;42.37;101908.63;5014428;28;20037;-62
2020/12/05 11:12:22;;;;;;;22.85;12.10;;;;;;;-0.22;42.14;101929.66;5032367;28;20120;-61